Messwerte Wetterstation Bergzabern, Bad 210m (Rheinland-Pfalz)

Aktuelle Messwerte

Temperatur und Niederschlag
Taupunkt, Temperatur und Luftfeuchtigkeit

Anzeige

Datum Temperatur °C Niederschlag l/m² (10 min) Taupunkt °C Rel. Feuchte %
20.04 - 07:50 Uhr - 0.0 - -
20.04 - 07:40 Uhr - 0.0 - -
20.04 - 07:30 Uhr - 0.0 - -
20.04 - 07:20 Uhr 7.9 0.0 3.7 75
20.04 - 07:10 Uhr 8.0 0.0 3.6 74
20.04 - 07:00 Uhr 7.9 0.0 3.7 75
20.04 - 06:50 Uhr 8.2 0.0 3.6 73
20.04 - 06:40 Uhr 8.1 0.0 3.8 74
20.04 - 06:30 Uhr 8.1 0.0 3.9 75
20.04 - 06:20 Uhr 8.3 0.0 4.2 75
20.04 - 06:10 Uhr 8.3 0.0 4.2 75
20.04 - 06:00 Uhr 8.3 0.0 4.2 75
20.04 - 05:50 Uhr 8.5 0.0 4.2 74
20.04 - 05:40 Uhr 8.5 0.0 4.3 75
20.04 - 05:30 Uhr 8.6 0.0 4.6 76
20.04 - 05:20 Uhr 9.0 0.0 4.6 74
20.04 - 05:10 Uhr 8.5 0.0 5.1 79
20.04 - 05:00 Uhr 8.4 0.0 5.1 80
20.04 - 04:50 Uhr 8.0 0.0 5.5 84
20.04 - 04:40 Uhr 8.2 0.0 5.5 83
20.04 - 04:30 Uhr 8.2 0.0 5.3 82
20.04 - 04:20 Uhr 8.3 0.0 5.3 81
20.04 - 04:10 Uhr 8.4 0.0 5.2 80
20.04 - 04:00 Uhr 8.5 0.0 5.1 79
20.04 - 03:50 Uhr 9.6 0.0 4.6 71
20.04 - 03:40 Uhr 9.4 0.0 4.5 72
20.04 - 03:30 Uhr 9.5 0.0 4.3 70
20.04 - 03:20 Uhr 10.0 0.0 4.1 67
20.04 - 03:10 Uhr 9.8 0.0 4.3 68
20.04 - 03:00 Uhr 9.8 0.0 4.1 68
20.04 - 02:50 Uhr 9.5 0.0 4.4 70
20.04 - 02:40 Uhr 10.0 0.0 4.2 67
20.04 - 02:30 Uhr 10.4 0.0 4.0 64
20.04 - 02:20 Uhr 10.3 0.0 3.9 65
20.04 - 02:10 Uhr 10.3 0.0 4.0 65
20.04 - 02:00 Uhr 10.4 0.0 3.8 64
20.04 - 01:50 Uhr 10.2 0.0 4.2 66
20.04 - 01:40 Uhr 10.7 0.0 3.7 62
20.04 - 01:30 Uhr 10.2 0.0 4.2 66
20.04 - 01:20 Uhr 10.1 0.0 4.2 67
20.04 - 01:10 Uhr 10.1 0.0 3.8 65
20.04 - 01:00 Uhr 10.6 0.0 3.4 61
20.04 - 00:50 Uhr 10.2 0.0 3.5 63
20.04 - 00:40 Uhr 9.9 0.0 3.5 65
20.04 - 00:30 Uhr 9.8 0.0 3.3 64
20.04 - 00:20 Uhr 9.4 0.0 3.5 67
20.04 - 00:10 Uhr 9.5 0.0 4.9 73
20.04 - 00:00 Uhr 9.0 0.0 5.3 77
19.04 - 23:50 Uhr 9.4 0.0 4.6 72
19.04 - 23:40 Uhr 10.1 0.0 3.9 65
19.04 - 23:30 Uhr 9.2 0.0 4.3 72
19.04 - 23:20 Uhr 10.0 0.0 4.2 67
19.04 - 23:10 Uhr 9.7 0.0 4.2 69
19.04 - 23:00 Uhr 10.3 0.0 4.0 65
19.04 - 22:50 Uhr 10.2 0.0 3.9 65
19.04 - 22:40 Uhr 9.8 0.0 4.1 68
19.04 - 22:30 Uhr 9.3 0.0 4.8 74
19.04 - 22:20 Uhr 9.9 0.0 4.8 71
19.04 - 22:10 Uhr 10.2 0.0 4.7 69
19.04 - 22:00 Uhr 10.4 0.0 4.7 68
19.04 - 21:50 Uhr 10.8 0.0 4.8 66
19.04 - 21:40 Uhr 10.9 0.0 4.9 66
19.04 - 21:30 Uhr 11.0 0.0 4.8 65
19.04 - 21:20 Uhr 11.0 0.0 4.5 64
19.04 - 21:10 Uhr 11.0 0.0 4.3 63
19.04 - 21:00 Uhr 11.2 0.0 3.4 59
19.04 - 20:50 Uhr 11.4 0.0 2.8 55
19.04 - 20:40 Uhr 11.9 0.0 2.5 52
19.04 - 20:30 Uhr 12.3 0.0 2.2 50
19.04 - 20:20 Uhr 12.3 0.0 2.3 50
19.04 - 20:10 Uhr 11.9 0.0 2.9 54
19.04 - 20:00 Uhr 13.1 0.0 2.1 47
19.04 - 19:50 Uhr 12.7 0.0 2.6 50
19.04 - 19:40 Uhr 13.4 0.0 1.6 45
19.04 - 19:30 Uhr 13.9 0.0 1.2 42
19.04 - 19:20 Uhr 13.9 0.0 1.6 43
19.04 - 19:10 Uhr 14.1 0.0 1.4 42
19.04 - 19:00 Uhr 14.2 0.0 1.2 41
19.04 - 18:50 Uhr 14.4 0.0 0.8 40
19.04 - 18:40 Uhr 14.5 0.0 0.7 39
19.04 - 18:30 Uhr 14.4 0.0 0.8 39
19.04 - 18:20 Uhr 14.4 0.0 -0.1 37
19.04 - 18:10 Uhr 15.0 0.0 1.8 41
19.04 - 18:00 Uhr 14.2 0.0 0.2 38
19.04 - 17:50 Uhr 14.7 0.0 -0.2 36
19.04 - 17:40 Uhr 15.1 0.0 0.9 38
19.04 - 17:30 Uhr 15.0 0.0 0.9 38
19.04 - 17:20 Uhr 14.6 0.0 0.6 39
19.04 - 17:10 Uhr 14.5 0.0 0.4 38
19.04 - 17:00 Uhr 15.6 0.0 1.7 39
19.04 - 16:50 Uhr 15.3 0.0 1.5 39
19.04 - 16:40 Uhr 14.5 0.0 2.0 43
19.04 - 16:30 Uhr 14.8 0.0 1.6 41
19.04 - 16:20 Uhr 14.3 0.0 1.5 42
19.04 - 16:10 Uhr 15.8 0.0 2.9 42
19.04 - 16:00 Uhr 14.7 0.0 1.8 42
19.04 - 15:50 Uhr 14.1 0.0 2.1 44
19.04 - 15:40 Uhr 14.9 0.0 2.2 42
19.04 - 15:30 Uhr 14.0 0.0 2.4 46
19.04 - 15:20 Uhr 15.0 0.0 2.8 44
19.04 - 15:10 Uhr 14.0 0.0 3.5 49
19.04 - 15:00 Uhr 14.9 0.0 2.8 44
19.04 - 14:50 Uhr 14.7 0.0 2.6 44
19.04 - 14:40 Uhr 14.6 0.0 2.6 45
19.04 - 14:30 Uhr 14.9 0.0 3.4 46
19.04 - 14:20 Uhr 14.5 0.0 3.4 47
19.04 - 14:10 Uhr 14.9 0.0 4.6 50
19.04 - 14:00 Uhr 14.2 0.0 4.4 52
19.04 - 13:50 Uhr 13.9 0.0 4.2 52
19.04 - 13:40 Uhr 14.7 0.0 3.7 48
19.04 - 13:30 Uhr 14.6 0.0 4.0 49
19.04 - 13:20 Uhr 14.1 0.0 4.5 52
19.04 - 13:10 Uhr 14.1 0.0 4.4 52
19.04 - 13:00 Uhr 14.2 0.0 5.9 57
19.04 - 12:50 Uhr 13.9 0.0 5.3 56
19.04 - 12:40 Uhr 13.4 0.0 5.3 58
19.04 - 12:30 Uhr 13.1 0.0 6.7 65
19.04 - 12:20 Uhr 13.3 0.0 6.8 65
19.04 - 12:10 Uhr 12.7 0.0 6.9 68
19.04 - 12:00 Uhr 12.8 0.0 7.3 69
19.04 - 11:50 Uhr 12.9 0.0 7.1 68
19.04 - 11:40 Uhr 12.5 0.0 6.3 66
19.04 - 11:30 Uhr 12.6 0.0 7.7 72
19.04 - 11:20 Uhr 12.9 0.0 8.5 75
19.04 - 11:10 Uhr 12.4 0.0 8.4 77
19.04 - 11:00 Uhr 12.5 0.0 10.0 85
19.04 - 10:50 Uhr 11.5 0.0 9.3 86
19.04 - 10:40 Uhr 12.1 0.0 9.4 84
19.04 - 10:30 Uhr 12.2 0.0 9.5 84
19.04 - 10:20 Uhr 11.9 0.0 9.4 85
19.04 - 10:10 Uhr 11.8 0.0 9.9 88
19.04 - 10:00 Uhr 11.6 0.0 10.3 91
19.04 - 09:50 Uhr 11.5 0.0 10.2 92
19.04 - 09:40 Uhr 11.3 0.0 10.1 92
19.04 - 09:30 Uhr 11.4 0.0 10.0 91
19.04 - 09:20 Uhr 11.2 0.0 9.8 91
19.04 - 09:10 Uhr 11.1 0.0 10.0 93
19.04 - 09:00 Uhr 10.9 0.0 9.1 89
19.04 - 08:50 Uhr 11.0 0.0 9.4 90
19.04 - 08:40 Uhr 10.7 0.0 9.4 92
19.04 - 08:30 Uhr 10.6 0.1 9.3 92
19.04 - 08:20 Uhr 10.7 1.9 9.2 90
19.04 - 08:10 Uhr 11.3 0.0 9.2 87
19.04 - 08:00 Uhr 11.2 0.0 9.1 87

Daten: Quelle DWD